Time;durP1;ratioP1;P1;durP2;ratioP2;P2;SDS_P1;SDS_P2;PMS_P1;PMS_P2;Temp;Humidity;BMP_temperature;BMP_pressure;BME280_temperature;BME280_humidity;BME280_pressure;Samples;Min_cycle;Max_cycle;Signal;HPM_P1;HPM_P2
2021/04/11 00:01:51;;;;;;;;;;;6.10;99.90;;;6.09;79.34;100918.44;5073487;28;19928;-69
2021/04/11 00:04:19;;;;;;;;;;;6.10;99.90;;;6.17;79.42;100914.19;5073579;28;20011;-69
2021/04/11 00:06:49;;;;;;;;;;;6.10;99.90;;;6.13;78.95;100897.53;5073310;28;20344;-70
2021/04/11 00:09:16;;;;;;;;;;;6.20;99.90;;;6.18;79.31;100918.56;5073219;28;20443;-69
2021/04/11 00:11:43;;;;;;;;;;;6.20;99.90;;;6.17;79.11;100909.84;5073426;28;19921;-69
2021/04/11 00:14:11;;;;;;;;;;;6.20;99.90;;;6.11;79.11;100912.38;5073176;28;19970;-69
2021/04/11 00:16:38;;;;;;;;;;;6.20;99.90;;;6.17;79.19;100916.81;5073523;28;19921;-69
2021/04/11 00:19:05;;;;;;;;;;;6.20;99.90;;;6.17;79.28;100917.72;5073093;28;20354;-69
2021/04/11 00:21:34;;;;;;;;;;;6.20;99.90;;;6.10;79.11;100917.56;5073099;28;19935;-69
2021/04/11 00:24:01;;;;;;;;;;;6.20;99.90;;;6.08;79.44;100909.69;5072972;28;20289;-69
2021/04/11 00:26:28;;;;;;;;;;;6.20;99.90;;;6.20;79.34;100929.97;5073541;28;20332;-69
2021/04/11 00:28:55;;;;;;;;;;;6.20;99.90;;;6.26;79.34;100917.81;5072182;28;19928;-69
2021/04/11 00:31:26;;;;;;;;;;;6.20;99.90;;;6.30;79.19;100913.50;5073177;28;19927;-69
2021/04/11 00:33:55;;;;;;;;;;;6.30;99.90;;;6.25;79.14;100912.56;5073302;28;20368;-70
2021/04/11 00:36:22;;;;;;;;;;;6.30;99.90;;;6.23;79.24;100907.25;5072873;28;19920;-69
2021/04/11 00:38:50;;;;;;;;;;;6.30;99.90;;;6.34;78.80;100916.19;5071868;28;19970;-69
2021/04/11 00:41:21;;;;;;;;;;;6.30;99.90;;;6.37;78.78;100920.56;5073024;28;19920;-70
2021/04/11 00:43:49;;;;;;;;;;;6.40;99.90;;;6.26;78.80;100886.31;5073036;28;20301;-69
2021/04/11 00:46:27;;;;;;;;;;;6.50;99.90;;;6.43;78.69;100910.16;5071644;28;20370;-69
2021/04/11 00:48:55;;;;;;;;;;;6.40;99.90;;;6.33;78.58;100901.28;5072857;28;19924;-69
2021/04/11 00:51:25;;;;;;;;;;;6.30;99.90;;;6.22;78.52;100879.25;5072924;28;19920;-69
2021/04/11 00:53:58;;;;;;;;;;;6.40;99.90;;;6.15;78.40;100895.81;5072809;28;20010;-69
2021/04/11 00:56:25;;;;;;;;;;;6.30;99.90;;;6.41;78.67;100879.50;5071650;28;20018;-69
2021/04/11 00:58:53;;;;;;;;;;;6.40;99.90;;;6.39;78.68;100882.06;5073276;28;20304;-69
2021/04/11 01:01:21;;;;;;;;;;;6.40;99.90;;;6.28;78.74;100884.59;5072719;28;20288;-69
2021/04/11 01:03:52;;;;;;;;;;;6.30;99.90;;;6.29;78.86;100909.97;5073011;28;20295;-69
2021/04/11 01:06:24;;;;;;;;;;;6.30;99.90;;;6.32;79.07;100899.53;5071545;28;19926;-70
2021/04/11 01:08:53;;;;;;;;;;;6.30;99.90;;;6.04;78.91;100851.88;5072896;28;19965;-69
2021/04/11 01:11:25;;;;;;;;;;;6.30;99.90;;;6.24;78.74;100939.66;5071373;28;19928;-69
2021/04/11 01:13:57;;;;;;;;;;;6.30;99.90;;;6.21;78.87;100908.97;5071313;28;19959;-68
2021/04/11 01:16:27;;;;;;;;;;;6.20;99.90;;;6.23;79.21;100904.63;5071345;28;20019;-69
2021/04/11 01:18:56;;;;;;;;;;;6.20;99.90;;;6.20;79.11;100912.50;5072525;28;19925;-70
2021/04/11 01:21:33;;;;;;;;;;;6.20;99.90;;;6.10;79.61;100886.97;5072790;28;19921;-69
2021/04/11 01:24:14;;;;;;;;;;;6.30;99.90;;;6.28;79.42;100910.84;5072671;28;19928;-69
2021/04/11 01:26:51;;;;;;;;;;;6.30;99.90;;;6.27;79.38;100906.44;5071460;28;19920;-69
2021/04/11 01:29:19;;;;;;;;;;;6.30;99.90;;;6.28;79.44;100905.59;5071413;28;20003;-69
2021/04/11 01:31:48;;;;;;;;;;;6.30;99.90;;;6.26;79.57;100907.31;5071359;28;19930;-69
2021/04/11 01:34:16;;;;;;;;;;;6.30;99.90;;;6.09;79.70;100877.34;5071111;28;20006;-69
2021/04/11 01:36:47;;;;;;;;;;;6.20;99.90;;;6.23;79.94;100903.78;5071076;28;19920;-69
2021/04/11 01:39:18;;;;;;;;;;;6.20;99.90;;;6.21;79.45;100898.47;5072413;28;19920;-69
2021/04/11 01:41:48;;;;;;;;;;;6.30;99.90;;;6.12;79.33;100910.59;5074984;28;19956;-69
2021/04/11 01:44:19;;;;;;;;;;;6.20;99.90;;;6.08;79.25;100909.69;5074773;28;19920;-69
2021/04/11 01:46:48;;;;;;;;;;;6.20;99.90;;;6.09;79.66;100895.72;5074699;28;19969;-69
2021/04/11 01:49:16;;;;;;;;;;;6.10;99.90;;;6.13;79.63;100889.66;5074508;28;20019;-69
2021/04/11 01:51:45;;;;;;;;;;;6.20;99.90;;;6.09;79.58;100874.72;5076054;28;19925;-69
2021/04/11 01:54:19;;;;;;;;;;;6.20;99.90;;;5.99;79.59;100885.03;5074974;28;19928;-69
2021/04/11 01:56:48;;;;;;;;;;;6.10;99.90;;;6.01;80.18;100902.59;5075750;28;19924;-69
2021/04/11 01:59:25;;;;;;;;;;;6.10;99.90;;;6.02;80.00;100912.22;5074201;28;19920;-69
2021/04/11 02:01:53;;;;;;;;;;;6.10;99.90;;;5.99;80.11;100919.16;5074293;28;19970;-69
2021/04/11 02:04:22;;;;;;;;;;;6.00;99.90;;;5.98;80.25;100915.66;5074606;28;19920;-69
2021/04/11 02:06:52;;;;;;;;;;;6.00;99.90;;;5.32;80.07;100814.94;5075620;28;19942;-69
2021/04/11 02:09:46;;;;;;;;;;;6.00;99.90;;;6.04;80.01;100918.38;5068824;28;19971;-69
2021/04/11 02:12:26;;;;;;;;;;;6.00;99.90;;;6.00;79.63;100902.56;5075352;28;19966;-69
2021/04/11 02:15:09;;;;;;;;;;;6.10;99.90;;;6.04;79.50;100909.66;5074284;28;19924;-70
2021/04/11 02:17:38;;;;;;;;;;;6.00;99.90;;;6.11;79.70;100903.59;5075410;28;19925;-69
2021/04/11 02:20:07;;;;;;;;;;;6.10;99.90;;;5.53;79.31;100810.00;5073964;28;20397;-69
2021/04/11 02:22:41;;;;;;;;;;;6.20;99.90;;;6.12;79.49;100915.84;5073984;28;19927;-70
2021/04/11 02:25:14;;;;;;;;;;;6.10;99.90;;;6.19;79.20;100936.97;5074109;28;20289;-70
2021/04/11 02:27:44;;;;;;;;;;;6.20;99.90;;;6.27;79.14;100939.72;5073827;28;19920;-69
2021/04/11 02:30:15;;;;;;;;;;;6.30;99.90;;;6.26;79.12;100972.97;5073915;28;19978;-69
2021/04/11 02:32:43;;;;;;;;;;;6.30;99.90;;;6.21;78.92;100950.16;5073934;28;19928;-69
2021/04/11 02:35:14;;;;;;;;;;;6.30;99.90;;;6.14;79.01;100937.75;5073634;28;19924;-69
2021/04/11 02:37:43;;;;;;;;;;;6.20;99.90;;;6.15;79.24;100953.56;5073888;28;19956;-70
2021/04/11 02:40:17;;;;;;;;;;;6.20;99.90;;;6.19;79.54;100942.22;5073703;28;19931;-69
2021/04/11 02:42:45;;;;;;;;;;;6.20;99.90;;;6.22;79.69;100931.78;5073925;28;20318;-70
2021/04/11 02:45:21;;;;;;;;;;;6.30;99.90;;;6.24;79.41;100930.06;5074085;28;19920;-69
2021/04/11 02:47:52;;;;;;;;;;;6.30;99.90;;;6.21;79.43;100935.25;5073460;28;19920;-69
2021/04/11 02:50:21;;;;;;;;;;;6.20;99.90;;;6.30;79.41;100943.28;5073763;28;20002;-69
2021/04/11 02:52:53;;;;;;;;;;;6.30;99.90;;;6.36;79.27;100947.72;5072683;28;19970;-69
2021/04/11 02:55:21;;;;;;;;;;;6.30;99.90;;;6.41;78.97;100948.66;5073635;28;19920;-69
2021/04/11 02:57:50;;;;;;;;;;;6.40;99.90;;;6.30;79.27;100968.66;5073346;28;19926;-69
2021/04/11 03:00:22;;;;;;;;;;;6.40;99.90;;;6.30;79.08;100955.50;5073360;28;19928;-69
2021/04/11 03:02:49;;;;;;;;;;;6.40;99.90;;;6.29;78.85;100949.38;5057325;28;20369;-70
2021/04/11 03:05:19;;;;;;;;;;;6.40;99.90;;;6.33;79.21;100964.31;5074582;28;19960;-70
2021/04/11 03:07:48;;;;;;;;;;;6.40;99.90;;;6.35;78.70;100961.69;5073138;28;19920;-69
2021/04/11 03:10:24;;;;;;;;;;;6.30;99.90;;;6.37;78.93;100945.09;5074366;28;19924;-70
2021/04/11 03:12:52;;;;;;;;;;;6.40;99.90;;;6.38;78.72;100939.00;5074129;28;19924;-69
2021/04/11 03:15:21;;;;;;;;;;;6.40;99.90;;;6.31;78.64;100947.66;5074427;28;19921;-69
2021/04/11 03:17:50;;;;;;;;;;;6.40;99.90;;;6.35;78.45;100959.06;5073421;28;20019;-69
2021/04/11 03:20:22;;;;;;;;;;;6.40;99.90;;;6.22;78.83;100955.41;5072939;28;19975;-70
2021/04/11 03:22:56;;;;;;;;;;;6.30;99.90;;;6.17;78.92;100954.47;5072811;28;19932;-69
2021/04/11 03:25:25;;;;;;;;;;;6.20;99.90;;;6.01;78.60;100935.84;5072919;28;20456;-70
2021/04/11 03:27:59;;;;;;;;;;;6.20;99.90;;;5.94;78.86;100929.59;5072978;28;19920;-69
2021/04/11 03:30:31;;;;;;;;;;;6.10;99.90;;;6.18;79.04;100947.47;5074239;28;19959;-69
2021/04/11 03:33:01;;;;;;;;;;;6.10;99.90;;;6.01;78.72;100928.84;5074029;28;19921;-69
2021/04/11 03:35:32;;;;;;;;;;;6.20;99.90;;;6.17;78.76;100957.09;5072679;28;19927;-69
2021/04/11 03:38:01;;;;;;;;;;;6.20;99.90;;;6.25;78.96;100970.34;5072742;28;19920;-69
2021/04/11 03:40:32;;;;;;;;;;;6.20;99.90;;;6.30;78.24;100979.16;5072638;28;19928;-69
2021/04/11 03:43:04;;;;;;;;;;;6.30;99.90;;;6.26;78.36;100980.84;5072487;28;19966;-70
2021/04/11 03:45:33;;;;;;;;;;;6.20;99.90;;;6.28;78.15;100978.25;5072782;28;19928;-69
2021/04/11 03:48:06;;;;;;;;;;;6.20;99.90;;;6.16;78.36;100986.81;5073833;28;20364;-69
2021/04/11 03:50:37;;;;;;;;;;;6.20;99.90;;;6.15;78.15;100971.06;5072857;28;20019;-69
2021/04/11 03:53:15;;;;;;;;;;;6.20;99.90;;;6.22;78.10;100965.91;5072580;28;19928;-69
2021/04/11 03:55:49;;;;;;;;;;;6.20;99.90;;;6.13;78.02;100955.28;5072688;28;19924;-70
2021/04/11 03:58:25;;;;;;;;;;;6.20;99.90;;;6.24;78.19;100971.19;5072296;28;19970;-69
2021/04/11 04:00:55;;;;;;;;;;;6.20;99.90;;;6.33;77.75;100973.94;5072240;28;19952;-69
2021/04/11 04:03:29;;;;;;;;;;;6.30;99.90;;;6.37;77.46;100981.00;5072182;28;19928;-69
2021/04/11 04:06:00;;;;;;;;;;;6.40;99.90;;;6.28;77.39;100967.75;5072338;28;20321;-69
2021/04/11 04:08:27;;;;;;;;;;;6.40;99.90;;;6.38;77.30;100975.78;5072153;28;19921;-70
2021/04/11 04:11:07;;;;;;;;;;;6.40;99.90;;;5.89;76.85;100973.28;5072150;28;19921;-69
2021/04/11 04:13:45;;;;;;;;;;;6.40;99.90;;;6.47;76.63;100988.16;5072276;28;19929;-69
2021/04/11 04:16:18;;;;;;;;;;;6.50;99.90;;;6.39;76.61;100988.03;5072180;28;20378;-69
2021/04/11 04:19:02;;;;;;;;;;;6.40;99.90;;;6.43;76.14;100986.34;5071937;28;20296;-70
2021/04/11 04:22:08;;;;;;;;;;;6.50;99.90;;;6.35;76.26;100986.22;5072331;28;20011;-69
2021/04/11 04:25:05;;;;;;;;;;;6.40;99.90;;;6.37;75.94;100992.41;5014397;28;20378;-70
2021/04/11 04:28:06;;;;;;;;;;;6.40;99.90;;;6.44;76.24;101000.38;5014301;28;19946;-70
2021/04/11 04:30:46;;;;;;;;;;;6.40;99.90;;;6.48;76.08;101005.69;5067810;28;19921;-70
2021/04/11 04:33:42;;;;;;;;;;;6.50;99.90;;;6.46;75.85;101009.16;5071614;28;20309;-69
2021/04/11 04:36:21;;;;;;;;;;;6.50;99.90;;;6.54;75.78;101003.16;5071734;28;19974;-69
2021/04/11 04:39:03;;;;;;;;;;;6.60;99.90;;;6.35;75.46;100991.50;5071843;28;19920;-69
2021/04/11 04:41:37;;;;;;;;;;;6.60;99.90;;;6.53;75.72;101003.09;5073084;28;20381;-70
2021/04/11 04:44:15;;;;;;;;;;;6.60;99.90;;;6.45;75.87;101018.78;5071836;28;19920;-70
2021/04/11 04:46:53;;;;;;;;;;;6.50;99.90;;;6.50;76.07;101017.13;5071638;28;19928;-70
2021/04/11 04:49:25;;;;;;;;;;;6.50;99.90;;;6.55;75.39;101025.94;5071807;28;19933;-70
2021/04/11 04:51:55;;;;;;;;;;;6.60;99.90;;;6.45;75.25;101013.50;5071928;28;20015;-70
2021/04/11 04:54:27;;;;;;;;;;;6.50;99.90;;;6.49;75.06;101019.69;5071730;28;19970;-69
2021/04/11 04:56:57;;;;;;;;;;;6.60;99.90;;;6.50;75.34;101022.38;5071506;28;19920;-70
2021/04/11 04:59:32;;;;;;;;;;;6.60;99.90;;;6.52;75.23;101030.25;5071403;28;20385;-70
2021/04/11 05:02:01;;;;;;;;;;;6.60;99.90;;;6.57;75.26;101023.31;5072952;28;19920;-69
2021/04/11 05:04:37;;;;;;;;;;;6.60;99.90;;;6.65;75.00;101029.56;5071949;28;20010;-69
2021/04/11 05:07:12;;;;;;;;;;;6.60;99.90;;;6.65;74.62;101032.19;5071462;28;19956;-69
2021/04/11 05:09:48;;;;;;;;;;;6.70;99.90;;;6.65;74.85;101034.81;5071388;28;19927;-70
2021/04/11 05:12:57;;;;;;;;;;;6.70;99.90;;;6.67;74.42;101040.97;5060613;28;20396;-70
2021/04/11 05:15:33;;;;;;;;;;;6.70;99.90;;;6.60;74.66;101033.88;5073634;28;20267;-70
2021/04/11 05:18:11;;;;;;;;;;;6.70;99.90;;;6.57;74.37;101041.72;5076711;28;20294;-69
2021/04/11 05:20:46;;;;;;;;;;;6.60;99.90;;;6.74;74.24;101045.44;5075186;28;20377;-70
2021/04/11 05:23:24;;;;;;;;;;;6.70;99.90;;;6.78;74.51;101048.16;5075231;28;19920;-70
2021/04/11 05:26:00;;;;;;;;;;;6.70;99.90;;;6.64;74.41;101051.47;5075712;28;19952;-70
2021/04/11 05:28:38;;;;;;;;;;;6.70;99.90;;;6.78;74.05;101060.41;5074886;28;19920;-69
2021/04/11 05:31:09;;;;;;;;;;;6.70;99.90;;;6.75;73.89;101037.63;5076477;28;19943;-69
2021/04/11 05:33:38;;;;;;;;;;;6.70;99.90;;;6.73;73.60;101056.84;5076130;28;20313;-69
2021/04/11 05:36:10;;;;;;;;;;;6.70;99.90;;;6.77;73.17;101062.19;5076171;28;19920;-70
2021/04/11 05:38:50;;;;;;;;;;;6.70;99.90;;;6.69;72.65;101049.78;5076038;28;20332;-69
2021/04/11 05:41:22;;;;;;;;;;;6.80;99.90;;;6.91;72.10;101083.41;5076044;28;19970;-69
2021/04/11 05:43:58;;;;;;;;;;;6.90;99.90;;;6.87;71.73;101079.81;5076087;28;20373;-70
2021/04/11 05:46:31;;;;;;;;;;;6.80;99.90;;;6.93;71.25;101084.31;5075958;28;19921;-70
2021/04/11 05:49:00;;;;;;;;;;;6.90;99.90;;;6.86;70.83;101079.81;5076094;28;19928;-70
2021/04/11 05:51:33;;;;;;;;;;;6.90;99.90;;;6.91;70.14;101078.13;5076018;28;20360;-70
2021/04/11 05:54:04;;;;;;;;;;;6.90;99.90;;;7.00;69.79;101086.13;5076286;28;19956;-70
2021/04/11 05:56:36;;;;;;;;;;;7.00;99.90;;;6.79;69.36;101084.09;5075945;28;19920;-70
2021/04/11 05:59:06;;;;;;;;;;;7.00;99.90;;;7.00;69.95;101094.91;5075723;28;19924;-70
2021/04/11 06:01:38;;;;;;;;;;;7.00;99.90;;;6.84;69.50;101060.50;5075566;28;19928;-70
2021/04/11 06:04:09;;;;;;;;;;;7.10;99.90;;;7.19;68.78;101096.91;5075892;28;19955;-70
2021/04/11 06:06:43;;;;;;;;;;;7.20;99.90;;;7.21;68.38;101110.97;5075836;28;20427;-69
2021/04/11 06:09:15;;;;;;;;;;;7.20;99.90;;;7.29;68.49;101106.69;5074421;28;19924;-70
2021/04/11 06:11:47;;;;;;;;;;;7.30;99.90;;;7.42;68.24;101109.47;5075525;28;19920;-70
2021/04/11 06:14:18;;;;;;;;;;;7.40;99.90;;;7.46;68.10;101111.25;5074146;28;20382;-70
2021/04/11 06:16:45;;;;;;;;;;;7.40;99.90;;;7.52;68.27;101108.72;5075412;28;20381;-70
2021/04/11 06:19:18;;;;;;;;;;;7.50;99.90;;;7.53;67.87;101113.97;5075218;28;19921;-70
2021/04/11 06:21:58;;;;;;;;;;;7.50;99.90;;;7.76;68.39;101123.03;5075573;28;19920;-70
2021/04/11 06:24:41;;;;;;;;;;;7.60;99.90;;;7.91;68.10;101128.47;5075207;28;20370;-70
2021/04/11 06:27:20;;;;;;;;;;;7.80;99.90;;;8.20;67.89;101124.38;5074138;28;20033;-70
2021/04/11 06:29:54;;;;;;;;;;;8.10;99.90;;;8.58;67.92;101139.66;5075160;28;19943;-70
2021/04/11 06:32:23;;;;;;;;;;;8.40;99.90;;;8.81;66.81;101144.22;5075263;28;20010;-70
2021/04/11 06:34:53;;;;;;;;;;;8.70;99.90;;;9.07;66.32;101136.50;5073789;28;20362;-70
2021/04/11 06:37:21;;;;;;;;;;;9.00;99.90;;;9.26;65.02;101155.94;5073918;28;19927;-70
2021/04/11 06:39:50;;;;;;;;;;;9.20;99.90;;;9.54;65.25;101156.06;5075347;28;19927;-70
2021/04/11 06:42:41;;;;;;;;;;;9.40;99.90;;;9.67;64.01;101149.09;5073735;28;19927;-70
2021/04/11 06:45:23;;;;;;;;;;;9.60;99.90;;;9.84;63.41;101150.91;5074735;28;20019;-70
2021/04/11 06:48:19;;;;;;;;;;;9.90;99.90;;;9.99;63.17;101153.59;5074785;28;19920;-70
2021/04/11 06:51:15;;;;;;;;;;;10.00;99.90;;;10.00;62.47;101151.84;5074924;28;20302;-70
2021/04/11 06:54:07;;;;;;;;;;;10.00;99.90;;;9.97;62.12;101159.75;5072345;28;19928;-70
2021/04/11 06:56:43;;;;;;;;;;;10.00;99.90;;;9.80;62.08;101162.34;5074610;28;20425;-70
2021/04/11 06:59:19;;;;;;;;;;;9.80;99.90;;;9.10;62.27;101079.31;5074691;28;19924;-70
2021/04/11 07:02:03;;;;;;;;;;;9.60;99.90;;;9.40;62.39;101165.72;5074306;28;19924;-70
2021/04/11 07:05:02;;;;;;;;;;;9.40;99.90;;;9.39;62.47;101163.91;5074248;28;19924;-70
2021/04/11 07:08:01;;;;;;;;;;;9.30;99.90;;;9.42;62.63;101169.25;5074099;28;19920;-70
2021/04/11 07:10:39;;;;;;;;;;;9.40;99.90;;;9.49;61.56;101165.75;5073741;28;19921;-70
2021/04/11 07:13:37;;;;;;;;;;;9.50;99.90;;;9.22;59.84;101152.41;5073618;28;19924;-70
2021/04/11 07:16:43;;;;;;;;;;;9.30;99.90;;;9.12;60.72;101155.84;5041230;28;19928;-70
2021/04/11 07:19:27;;;;;;;;;;;9.20;99.90;;;9.20;60.69;101156.78;5072620;28;19997;-70
2021/04/11 07:22:12;;;;;;;;;;;9.20;99.90;;;9.36;60.86;101161.28;5073794;28;19925;-70
2021/04/11 07:24:51;;;;;;;;;;;9.40;99.90;;;9.61;60.65;101162.25;5072898;28;19931;-70
2021/04/11 07:27:41;;;;;;;;;;;9.60;99.90;;;9.86;60.83;101166.75;5072318;28;19944;-70
2021/04/11 07:30:27;;;;;;;;;;;9.80;99.90;;;9.58;58.65;101157.84;5073418;28;20393;-70
2021/04/11 07:33:21;;;;;;;;;;;9.70;99.90;;;9.74;58.54;101175.53;5073514;28;19927;-70
2021/04/11 07:36:01;;;;;;;;;;;9.80;99.90;;;9.57;58.32;101179.88;5073911;28;20389;-70
2021/04/11 07:38:40;;;;;;;;;;;9.60;99.90;;;9.60;58.02;101187.78;5073568;28;19931;-70
2021/04/11 07:41:43;;;;;;;;;;;9.70;99.90;;;9.85;57.79;101184.38;5073628;28;19927;-70
2021/04/11 07:44:31;;;;;;;;;;;9.90;99.90;;;9.59;57.05;101178.13;5071430;28;20262;-70
2021/04/11 07:47:03;;;;;;;;;;;9.70;99.90;;;9.71;57.19;101187.84;5066518;28;19920;-70
2021/04/11 07:49:50;;;;;;;;;;;9.80;99.90;;;9.89;57.05;101191.44;5073276;28;19956;-70
2021/04/11 07:52:40;;;;;;;;;;;9.90;99.90;;;9.67;56.53;101186.97;5073356;28;20328;-70
2021/04/11 07:55:16;;;;;;;;;;;10.00;99.90;;;9.92;56.27;101196.75;5073652;28;19926;-70
2021/04/11 07:58:05;;;;;;;;;;;10.00;99.90;;;10.11;56.31;101212.66;5073255;28;20297;-70
2021/04/11 08:01:01;;;;;;;;;;;10.20;99.90;;;10.18;56.11;101212.69;5071824;28;19939;-70
2021/04/11 08:03:58;;;;;;;;;;;10.20;99.90;;;10.29;57.08;101223.28;5073421;28;19920;-70
2021/04/11 08:07:10;;;;;;;;;;;10.30;99.90;;;10.24;56.31;101215.34;5047857;28;19924;-70
2021/04/11 08:09:56;;;;;;;;;;;10.40;99.90;;;10.24;56.32;101223.28;5040254;28;20386;-70
2021/04/11 08:12:42;;;;;;;;;;;10.30;99.90;;;10.24;56.84;101222.41;5073146;28;19920;-70
2021/04/11 08:15:18;;;;;;;;;;;10.30;99.90;;;10.13;57.03;101225.03;5073073;28;19927;-70
2021/04/11 08:18:00;;;;;;;;;;;10.20;99.90;;;9.92;57.42;101235.47;5071916;28;19920;-70
2021/04/11 08:20:56;;;;;;;;;;;10.00;99.90;;;9.75;57.03;101240.72;5073045;28;19924;-70
2021/04/11 08:23:53;;;;;;;;;;;9.90;99.90;;;9.57;56.71;101240.59;5064650;28;19935;-70
2021/04/11 08:26:51;;;;;;;;;;;9.70;99.90;;;9.54;57.82;101242.34;5065719;28;19920;-70
2021/04/11 08:29:43;;;;;;;;;;;9.60;99.90;;;9.57;57.83;101240.59;5072841;28;19920;-70
2021/04/11 08:32:52;;;;;;;;;;;9.60;99.90;;;9.36;57.64;101245.75;5073400;28;20411;-69
2021/04/11 08:36:06;;;;;;;;;;;9.60;99.90;;;9.14;57.04;101254.38;5045615;28;20011;-70
2021/04/11 08:38:58;;;;;;;;;;;9.30;99.90;;;8.99;57.08;101262.19;5072509;28;19967;-70
2021/04/11 08:41:45;;;;;;;;;;;9.00;99.90;;;8.87;57.32;101272.63;5072425;28;19921;-70
2021/04/11 08:44:20;;;;;;;;;;;9.00;99.90;;;8.81;57.70;101248.81;5072657;28;19921;-70
2021/04/11 08:47:06;;;;;;;;;;;9.00;99.90;;;8.83;57.13;101279.63;5073001;28;19928;-70
2021/04/11 08:49:41;;;;;;;;;;;8.90;99.90;;;8.81;57.99;101277.84;5073328;28;19924;-70
2021/04/11 08:52:16;;;;;;;;;;;8.80;99.90;;;8.77;57.70;101276.94;5076961;28;20338;-70
2021/04/11 08:54:48;;;;;;;;;;;8.70;99.90;;;8.97;57.94;101282.38;5077093;28;20320;-70
2021/04/11 08:57:37;;;;;;;;;;;8.90;99.90;;;9.35;57.45;101282.72;5075701;28;20456;-70
2021/04/11 09:00:10;;;;;;;;;;;9.30;99.90;;;9.64;56.67;101289.06;5076695;28;20277;-70
2021/04/11 09:02:59;;;;;;;;;;;9.60;99.90;;;9.91;56.50;101289.22;5075525;28;19920;-69
2021/04/11 09:05:30;;;;;;;;;;;9.90;99.90;;;10.01;55.70;101291.00;5076738;28;20033;-70
2021/04/11 09:08:09;;;;;;;;;;;10.00;99.90;;;10.39;54.93;101296.50;5076876;28;19924;-71
2021/04/11 09:10:48;;;;;;;;;;;10.40;99.90;;;9.91;52.79;101290.06;5076847;28;19921;-70
2021/04/11 09:13:22;;;;;;;;;;;10.10;99.90;;;10.08;53.87;101313.97;5075035;28;20483;-70
2021/04/11 09:15:51;;;;;;;;;;;10.10;99.90;;;9.94;54.22;101297.16;5075618;28;19970;-69
2021/04/11 09:18:30;;;;;;;;;;;10.00;99.90;;;10.01;53.42;101304.22;5076506;28;19963;-70
2021/04/11 09:21:27;;;;;;;;;;;10.00;99.90;;;9.65;51.75;101302.28;5076445;28;19927;-70
2021/04/11 09:24:01;;;;;;;;;;;9.90;99.90;;;9.57;53.00;101319.81;5076296;28;19924;-70
2021/04/11 09:27:05;;;;;;;;;;;9.60;99.90;;;9.79;52.50;101320.84;5076518;28;19986;-70
2021/04/11 09:29:35;;;;;;;;;;;9.70;99.90;;;10.15;52.90;101313.13;5076276;28;20281;-70
2021/04/11 09:32:18;;;;;;;;;;;10.10;99.90;;;10.54;52.32;101315.94;5076134;28;20011;-70
2021/04/11 09:35:16;;;;;;;;;;;10.50;99.90;;;10.96;51.00;101311.56;5076317;28;19930;-70
2021/04/11 09:38:18;;;;;;;;;;;10.90;99.90;;;11.29;49.69;101308.94;5052771;28;19924;-70
2021/04/11 09:40:56;;;;;;;;;;;11.30;99.90;;;11.20;48.80;101316.91;5075602;28;19928;-70
2021/04/11 09:43:42;;;;;;;;;;;11.40;99.90;;;11.37;49.96;101315.13;5076128;28;19927;-70
2021/04/11 09:46:37;;;;;;;;;;;11.30;99.90;;;11.65;49.43;101330.13;5076242;28;20328;-70
2021/04/11 09:49:42;;;;;;;;;;;11.70;99.90;;;11.16;50.52;101326.63;5076077;28;19925;-70
2021/04/11 09:52:42;;;;;;;;;;;11.40;99.90;;;10.98;51.05;101337.19;5075861;28;19974;-70
2021/04/11 09:55:16;;;;;;;;;;;11.10;99.90;;;10.98;51.55;101323.94;5075521;28;19927;-70
2021/04/11 09:57:58;;;;;;;;;;;11.10;99.90;;;11.19;53.07;101334.53;5075178;28;20354;-70
2021/04/11 10:00:31;;;;;;;;;;;11.10;99.90;;;11.29;51.10;101323.06;5074999;28;19974;-70
2021/04/11 10:03:15;;;;;;;;;;;11.30;99.90;;;11.50;50.71;101325.72;5075559;28;19920;-70
2021/04/11 10:05:49;;;;;;;;;;;11.40;99.90;;;11.70;48.70;101339.88;5075355;28;20026;-70
2021/04/11 10:08:36;;;;;;;;;;;11.80;99.90;;;11.72;48.52;101338.09;5074239;28;19921;-70
2021/04/11 10:11:12;;;;;;;;;;;11.70;99.90;;;11.91;48.37;101335.38;5075545;28;19935;-70
2021/04/11 10:14:05;;;;;;;;;;;11.90;99.90;;;11.57;48.05;101340.75;5075598;28;19927;-70
2021/04/11 10:16:37;;;;;;;;;;;11.80;99.90;;;11.57;48.83;101337.19;5060623;28;19921;-70
2021/04/11 10:19:26;;;;;;;;;;;11.70;99.90;;;11.75;49.45;101346.03;5075413;28;19930;-70
2021/04/11 10:22:01;;;;;;;;;;;11.80;99.90;;;11.80;49.37;101348.69;5073871;28;19924;-70
2021/04/11 10:24:37;;;;;;;;;;;11.80;99.90;;;11.49;47.85;101353.09;5075151;28;19943;-70
2021/04/11 10:27:11;;;;;;;;;;;11.60;99.90;;;11.33;49.11;101350.44;5073999;28;20310;-69
2021/04/11 10:29:42;;;;;;;;;;;11.40;99.90;;;11.52;49.29;101360.16;5073817;28;19920;-69
2021/04/11 10:32:15;;;;;;;;;;;11.50;99.90;;;11.09;49.18;101358.38;5075149;28;20262;-70
2021/04/11 10:34:45;;;;;;;;;;;11.30;99.90;;;11.43;49.74;101361.06;5074825;28;19962;-69
2021/04/11 10:37:19;;;;;;;;;;;11.50;99.90;;;11.55;49.43;101341.63;5075073;28;20312;-70
2021/04/11 10:39:58;;;;;;;;;;;11.70;99.90;;;11.80;49.95;101353.97;5074902;28;19990;-69
2021/04/11 10:42:34;;;;;;;;;;;11.90;99.90;;;11.85;50.60;101375.16;5074891;28;20326;-72
2021/04/11 10:45:11;;;;;;;;;;;12.00;99.90;;;11.67;51.60;101384.91;5074886;28;19920;-69
2021/04/11 10:48:02;;;;;;;;;;;11.80;99.90;;;11.69;50.54;101375.19;5075035;28;19942;-70
2021/04/11 10:50:34;;;;;;;;;;;11.80;99.90;;;11.72;50.57;101396.41;5071083;28;20378;-70
2021/04/11 10:53:13;;;;;;;;;;;11.80;99.90;;;11.39;51.01;101368.97;5074801;28;19921;-69
2021/04/11 10:55:59;;;;;;;;;;;11.60;99.90;;;11.30;50.48;101398.13;5074209;28;19965;-69
2021/04/11 10:58:39;;;;;;;;;;;11.40;99.90;;;11.37;51.18;101400.78;5074126;28;19920;-70
2021/04/11 11:01:21;;;;;;;;;;;11.40;99.90;;;11.14;51.79;101383.97;5074128;28;19920;-69
2021/04/11 11:04:19;;;;;;;;;;;11.30;99.90;;;11.59;51.42;101410.47;5073007;28;19925;-69
2021/04/11 11:07:05;;;;;;;;;;;11.60;99.90;;;11.69;49.80;101416.72;5074403;28;19920;-70
2021/04/11 11:09:35;;;;;;;;;;;11.70;99.90;;;11.78;51.61;101416.72;5074352;28;19994;-70
2021/04/11 11:12:44;;;;;;;;;;;11.80;99.90;;;11.79;50.72;101424.66;5073725;28;20404;-69
2021/04/11 11:15:20;;;;;;;;;;;11.80;99.90;;;11.86;50.96;101414.06;5053431;28;19924;-70
2021/04/11 11:18:17;;;;;;;;;;;11.90;99.90;;;11.25;48.07;101342.50;5072805;28;19943;-70
2021/04/11 11:20:56;;;;;;;;;;;11.80;99.90;;;11.09;47.38;101435.16;5072558;28;20308;-69
2021/04/11 11:23:34;;;;;;;;;;;11.30;99.90;;;11.56;47.84;101428.16;5074022;28;19920;-70
2021/04/11 11:26:28;;;;;;;;;;;11.50;99.90;;;11.63;47.30;101427.28;5073899;28;19927;-70
2021/04/11 11:29:11;;;;;;;;;;;11.60;99.90;;;11.68;46.70;101430.84;5074187;28;19931;-70
2021/04/11 11:31:52;;;;;;;;;;;11.70;99.90;;;11.83;45.08;101429.97;5073189;28;20400;-70
2021/04/11 11:34:50;;;;;;;;;;;11.90;99.90;;;11.77;44.02;101442.31;5072127;28;19974;-70
2021/04/11 11:37:24;;;;;;;;;;;11.90;99.90;;;11.51;45.16;101433.47;5058428;28;19931;-70
2021/04/11 11:40:01;;;;;;;;;;;11.70;99.90;;;11.62;45.31;101433.44;5072668;28;20633;-70
2021/04/11 11:42:34;;;;;;;;;;;11.70;99.90;;;10.77;46.57;101440.34;5073779;28;19924;-69
2021/04/11 11:45:08;;;;;;;;;;;11.00;99.90;;;10.81;47.25;101443.00;5073447;28;19943;-70
2021/04/11 11:47:41;;;;;;;;;;;10.80;99.90;;;10.64;46.80;101406.78;5073681;28;19921;-70
2021/04/11 11:50:12;;;;;;;;;;;10.80;99.90;;;11.04;47.17;101443.06;5073418;28;19924;-70
2021/04/11 11:52:47;;;;;;;;;;;10.90;99.90;;;10.68;47.09;101350.34;5073485;28;19926;-70
2021/04/11 11:55:22;;;;;;;;;;;11.20;99.90;;;11.38;46.70;101458.16;5073112;28;19920;-70
2021/04/11 11:57:54;;;;;;;;;;;11.40;99.90;;;11.03;47.91;101443.97;5073421;28;20286;-70
2021/04/11 12:00:29;;;;;;;;;;;11.20;99.90;;;10.36;47.11;101322.91;5073346;28;19924;-69
2021/04/11 12:03:07;;;;;;;;;;;11.10;99.90;;;11.10;47.04;101461.63;5073409;28;19927;-69
2021/04/11 12:05:40;;;;;;;;;;;11.10;99.90;;;11.42;47.87;101451.97;5073250;28;19924;-69
2021/04/11 12:08:16;;;;;;;;;;;11.40;99.90;;;11.37;46.10;101467.00;5073428;28;20010;-69
2021/04/11 12:10:48;;;;;;;;;;;11.50;99.90;;;11.19;47.89;101472.22;5072548;28;19954;-70